createdAt,value
2023-04-02T00:01:17.722Z,10.37
2023-04-02T00:04:17.019Z,10.36
2023-04-02T00:06:44.557Z,10.40
2023-04-02T00:09:26.675Z,10.45
2023-04-02T00:11:54.187Z,10.45
2023-04-02T00:14:28.629Z,10.43
2023-04-02T00:17:00.831Z,10.36
2023-04-02T00:19:36.656Z,10.37
2023-04-02T00:22:09.787Z,10.38
2023-04-02T00:24:39.710Z,10.42
2023-04-02T00:27:12.281Z,10.37
2023-04-02T00:29:48.659Z,10.38
2023-04-02T00:32:26.787Z,10.39
2023-04-02T00:34:55.042Z,10.38
2023-04-02T00:37:27.683Z,10.43
2023-04-02T00:40:01.701Z,10.45
2023-04-02T00:42:31.263Z,10.49
2023-04-02T00:45:02.682Z,10.51
2023-04-02T00:47:37.157Z,10.51
2023-04-02T00:50:22.046Z,10.56
2023-04-02T00:52:53.884Z,10.55
2023-04-02T00:55:25.321Z,10.52
2023-04-02T00:58:01.802Z,10.43
2023-04-02T01:00:34.191Z,10.31
2023-04-02T01:03:33.122Z,10.00
2023-04-02T01:06:06.799Z,10.08
2023-04-02T01:09:09.270Z,10.12
2023-04-02T01:12:12.662Z,10.15
2023-04-02T01:15:01.248Z,10.21
2023-04-02T01:17:58.788Z,9.92
2023-04-02T01:21:04.819Z,9.98
2023-04-02T01:23:48.033Z,9.82
2023-04-02T01:26:30.691Z,9.83
2023-04-02T01:29:09.322Z,9.81
2023-04-02T01:31:39.020Z,9.87
2023-04-02T01:34:11.724Z,9.87
2023-04-02T01:36:54.044Z,9.94
2023-04-02T01:39:43.850Z,10.01
2023-04-02T01:42:21.702Z,10.09
2023-04-02T01:44:53.267Z,10.15
2023-04-02T01:47:25.735Z,10.17
2023-04-02T01:50:00.279Z,10.24
2023-04-02T01:52:39.877Z,10.28
2023-04-02T01:55:09.366Z,10.30
2023-04-02T01:57:36.732Z,10.28
2023-04-02T02:00:07.619Z,10.29
2023-04-02T02:02:42.358Z,10.26
2023-04-02T02:05:15.057Z,10.23
2023-04-02T02:07:45.876Z,10.26
2023-04-02T02:10:25.125Z,10.24
2023-04-02T02:12:52.766Z,10.10
2023-04-02T02:15:23.654Z,10.13
2023-04-02T02:18:01.495Z,10.17
2023-04-02T02:20:30.321Z,10.16
2023-04-02T02:22:58.789Z,10.14
2023-04-02T02:25:30.875Z,10.09
2023-04-02T02:28:08.206Z,10.02
2023-04-02T02:30:43.947Z,10.00
2023-04-02T02:33:20.985Z,10.08
2023-04-02T02:35:57.312Z,10.09
2023-04-02T02:38:43.165Z,10.12
2023-04-02T02:41:25.920Z,9.97
2023-04-02T02:46:54.484Z,10.00
2023-04-02T02:49:27.999Z,10.04
2023-04-02T02:52:04.307Z,10.10
2023-04-02T02:54:44.811Z,10.09
2023-04-02T02:57:21.854Z,10.10
2023-04-02T02:59:52.972Z,10.07
2023-04-02T03:02:29.465Z,10.05
2023-04-02T03:05:00.363Z,10.02
2023-04-02T03:07:34.463Z,10.04
2023-04-02T03:10:24.470Z,9.97
2023-04-02T03:13:02.763Z,9.84
2023-04-02T03:15:40.486Z,9.77
2023-04-02T03:18:18.289Z,9.85
2023-04-02T03:20:52.756Z,9.93
2023-04-02T03:23:27.434Z,9.85
2023-04-02T03:26:04.812Z,9.88
2023-04-02T03:28:41.435Z,9.90
2023-04-02T03:31:20.272Z,9.88
2023-04-02T03:33:59.400Z,9.82
2023-04-02T03:36:39.422Z,9.88
2023-04-02T03:39:25.116Z,9.94
2023-04-02T03:42:08.323Z,9.91
2023-04-02T03:44:53.208Z,9.96
2023-04-02T03:47:37.656Z,9.92
2023-04-02T03:50:20.057Z,9.90
2023-04-02T03:52:53.432Z,9.82
2023-04-02T03:55:29.176Z,9.83
2023-04-02T03:58:07.575Z,9.84
2023-04-02T04:00:48.578Z,9.70
2023-04-02T04:03:26.219Z,9.67
2023-04-02T04:06:06.868Z,9.65
2023-04-02T04:08:44.707Z,9.68
2023-04-02T04:11:19.227Z,9.54
2023-04-02T04:13:57.315Z,9.62
2023-04-02T04:16:34.179Z,9.58
2023-04-02T04:19:12.322Z,9.55
2023-04-02T04:21:41.016Z,9.54
2023-04-02T04:24:20.731Z,9.54
2023-04-02T04:26:58.842Z,9.46
2023-04-02T04:29:40.994Z,9.61
2023-04-02T04:32:24.621Z,9.66
2023-04-02T04:34:57.087Z,9.63
2023-04-02T04:37:37.432Z,9.68
2023-04-02T04:40:18.617Z,9.66
2023-04-02T04:46:03.354Z,9.57
2023-04-02T04:48:40.572Z,9.65
2023-04-02T04:51:21.304Z,9.70
2023-04-02T04:53:54.065Z,9.69
2023-04-02T04:56:28.549Z,9.64
2023-04-02T04:59:17.391Z,9.65
2023-04-02T05:02:02.482Z,9.63
2023-04-02T05:04:36.372Z,9.63
2023-04-02T05:07:13.827Z,9.42
2023-04-02T05:09:56.170Z,9.47
2023-04-02T05:12:35.963Z,9.17
2023-04-02T05:15:17.953Z,9.25
2023-04-02T05:17:55.680Z,9.17
2023-04-02T05:20:30.027Z,9.22
2023-04-02T05:23:05.874Z,9.19
2023-04-02T05:25:35.299Z,9.12
2023-04-02T05:28:17.788Z,9.01
2023-04-02T05:30:53.584Z,8.95
2023-04-02T05:33:28.103Z,8.99
2023-04-02T05:36:03.483Z,8.91
2023-04-02T05:38:39.815Z,8.93
2023-04-02T05:41:24.231Z,8.90
2023-04-02T05:44:06.792Z,8.88
2023-04-02T05:46:42.295Z,8.87
2023-04-02T05:49:20.293Z,8.89
2023-04-02T05:51:57.540Z,8.92
2023-04-02T05:54:33.007Z,9.04
2023-04-02T05:57:09.992Z,9.09
2023-04-02T05:59:43.813Z,9.06
2023-04-02T06:02:23.697Z,9.04
2023-04-02T06:04:59.902Z,9.01
2023-04-02T06:07:42.484Z,9.07
2023-04-02T06:10:18.463Z,9.19
2023-04-02T06:12:54.283Z,9.18
2023-04-02T06:15:24.445Z,9.12
2023-04-02T06:18:06.217Z,9.26
2023-04-02T06:20:36.070Z,9.41
2023-04-02T06:23:34.669Z,9.45
2023-04-02T06:26:12.665Z,9.60
2023-04-02T06:28:47.688Z,9.75
2023-04-02T06:31:30.101Z,9.85
2023-04-02T06:33:57.734Z,9.93
2023-04-02T06:36:29.540Z,9.99
2023-04-02T06:39:09.209Z,10.07
2023-04-02T06:41:37.445Z,10.15
2023-04-02T06:44:32.086Z,10.24
2023-04-02T06:47:32.045Z,10.31
2023-04-02T06:50:08.196Z,10.35
2023-04-02T06:52:45.867Z,10.41
2023-04-02T06:55:31.707Z,10.38
2023-04-02T06:57:59.048Z,10.19
2023-04-02T07:00:37.469Z,10.05
2023-04-02T07:03:14.518Z,10.17
2023-04-02T07:05:43.145Z,10.29
2023-04-02T07:08:11.053Z,10.35
2023-04-02T07:10:38.092Z,10.41
2023-04-02T07:13:06.073Z,10.48
2023-04-02T07:15:34.680Z,10.56
2023-04-02T07:18:02.324Z,10.65
2023-04-02T07:20:33.149Z,10.67
2023-04-02T07:23:05.968Z,10.72
2023-04-02T07:25:33.715Z,10.79
2023-04-02T07:28:01.136Z,10.85
2023-04-02T07:30:30.485Z,10.90
2023-04-02T07:33:56.963Z,10.92
2023-04-02T07:36:50.528Z,11.00
2023-04-02T07:39:17.903Z,10.97
2023-04-02T07:41:53.264Z,10.91
2023-04-02T07:48:53.199Z,10.99
2023-04-02T07:51:31.180Z,11.14
2023-04-02T07:54:02.572Z,11.26
2023-04-02T07:56:45.437Z,11.36
2023-04-02T07:59:12.470Z,11.34
2023-04-02T08:01:39.391Z,11.41
2023-04-02T08:04:06.540Z,11.50
2023-04-02T08:06:33.908Z,11.57
2023-04-02T08:09:02.891Z,11.68
2023-04-02T08:11:31.903Z,11.78
2023-04-02T08:18:56.079Z,11.71
2023-04-02T08:21:25.985Z,11.77
2023-04-02T08:23:52.892Z,11.93
2023-04-02T08:26:21.287Z,12.12
2023-04-02T08:28:48.499Z,12.23
2023-04-02T08:31:15.405Z,12.32
2023-04-02T08:33:42.737Z,12.38
2023-04-02T08:36:17.121Z,12.54
2023-04-02T08:38:47.498Z,12.56
2023-04-02T08:41:24.414Z,12.51
2023-04-02T08:44:12.195Z,12.48
2023-04-02T08:46:48.409Z,12.57
2023-04-02T08:49:22.052Z,12.63
2023-04-02T08:51:51.015Z,12.70
2023-04-02T08:54:25.774Z,12.74
2023-04-02T08:57:00.963Z,12.78
2023-04-02T08:59:34.112Z,12.91
2023-04-02T09:02:29.414Z,13.06
2023-04-02T09:05:00.018Z,13.32
2023-04-02T09:07:27.945Z,13.42
2023-04-02T09:09:55.102Z,13.46
2023-04-02T09:12:28.172Z,13.60
2023-04-02T09:15:12.089Z,13.59
2023-04-02T09:17:52.982Z,13.54
2023-04-02T09:20:25.744Z,13.59
2023-04-02T09:22:55.680Z,13.61
2023-04-02T09:25:26.115Z,13.47
2023-04-02T09:27:58.360Z,13.36
2023-04-02T09:30:43.624Z,13.47
2023-04-02T09:33:10.885Z,13.51
2023-04-02T09:35:55.094Z,13.65
2023-04-02T09:38:25.943Z,13.62
2023-04-02T09:41:00.315Z,13.55
2023-04-02T09:43:32.136Z,13.64
2023-04-02T09:46:02.844Z,13.68
2023-04-02T09:48:34.791Z,13.92
2023-04-02T09:51:17.281Z,13.93
2023-04-02T09:53:47.439Z,14.01
2023-04-02T09:56:21.299Z,14.13
2023-04-02T09:59:05.821Z,14.04
2023-04-02T10:01:36.010Z,13.92
2023-04-02T10:04:07.825Z,13.96
2023-04-02T10:06:35.723Z,14.00
2023-04-02T10:09:28.062Z,14.07
2023-04-02T10:11:57.441Z,14.00
2023-04-02T10:14:31.741Z,13.80
2023-04-02T10:17:11.557Z,13.74
2023-04-02T10:19:45.634Z,13.77
2023-04-02T10:22:17.572Z,13.87
2023-04-02T10:24:44.770Z,13.90
2023-04-02T10:27:27.693Z,13.92
2023-04-02T10:30:15.361Z,14.00
2023-04-02T10:32:51.722Z,13.99
2023-04-02T10:35:40.350Z,13.96
2023-04-02T10:38:30.630Z,13.96
2023-04-02T10:41:07.771Z,13.93
2023-04-02T10:44:31.386Z,13.94
2023-04-02T10:47:17.092Z,13.95
2023-04-02T10:50:09.357Z,13.94
2023-04-02T10:52:45.893Z,13.88
2023-04-02T10:55:21.945Z,13.97
2023-04-02T10:57:54.128Z,14.05
2023-04-02T11:00:25.943Z,14.20
2023-04-02T11:03:02.471Z,14.19
2023-04-02T11:05:40.315Z,14.33
2023-04-02T11:08:18.484Z,14.40
2023-04-02T11:10:51.061Z,14.56
2023-04-02T11:13:28.183Z,14.71
2023-04-02T11:15:55.945Z,14.79
2023-04-02T11:18:29.544Z,14.96
2023-04-02T11:21:01.956Z,14.95
2023-04-02T11:23:33.586Z,15.09
2023-04-02T11:26:39.156Z,14.92
2023-04-02T11:29:21.107Z,14.73
2023-04-02T11:31:51.692Z,14.50
2023-04-02T11:35:24.498Z,14.48
2023-04-02T11:37:55.860Z,14.48
2023-04-02T11:40:47.458Z,14.58
2023-04-02T11:43:51.296Z,14.40
2023-04-02T11:46:42.673Z,14.39
2023-04-02T11:49:39.198Z,14.42
2023-04-02T11:52:22.990Z,14.29
2023-04-02T11:55:17.694Z,14.18
2023-04-02T11:58:25.454Z,13.64
2023-04-02T12:01:39.404Z,13.27
2023-04-02T12:04:45.867Z,13.29
2023-04-02T12:07:46.522Z,12.69
2023-04-02T12:10:20.723Z,12.66
2023-04-02T12:12:49.423Z,12.47
2023-04-02T12:15:42.267Z,12.53
2023-04-02T12:18:17.210Z,12.39
2023-04-02T12:20:51.828Z,11.45
2023-04-02T12:23:30.211Z,11.08
2023-04-02T12:26:43.132Z,11.34
2023-04-02T12:30:33.615Z,11.30
2023-04-02T12:33:42.964Z,11.31
2023-04-02T12:36:20.660Z,11.28
2023-04-02T12:38:51.550Z,10.95
2023-04-02T12:41:27.293Z,10.92
2023-04-02T12:44:03.091Z,10.87
2023-04-02T12:46:32.969Z,10.51
2023-04-02T12:49:06.863Z,10.81
2023-04-02T12:51:41.015Z,11.02
2023-04-02T12:54:16.122Z,11.15
2023-04-02T12:56:44.924Z,10.70
2023-04-02T12:59:30.090Z,10.75
2023-04-02T13:02:01.570Z,11.03
2023-04-02T13:04:28.934Z,11.20
2023-04-02T13:06:56.772Z,11.43
2023-04-02T13:09:35.022Z,10.60
2023-04-02T13:12:04.086Z,10.36
2023-04-02T13:14:31.517Z,10.22
2023-04-02T13:16:58.638Z,10.44
2023-04-02T13:19:30.698Z,10.59
2023-04-02T13:22:04.166Z,10.64
2023-04-02T13:24:34.063Z,10.00
2023-04-02T13:27:03.962Z,10.01
2023-04-02T13:29:32.712Z,9.93
2023-04-02T13:32:02.348Z,10.04
2023-04-02T13:34:30.246Z,10.37
2023-04-02T13:36:58.145Z,10.17
2023-04-02T13:39:27.174Z,10.42
2023-04-02T13:41:58.665Z,10.10
2023-04-02T13:44:29.833Z,10.31
2023-04-02T13:46:58.292Z,10.68
2023-04-02T13:49:26.550Z,10.87
2023-04-02T13:51:57.120Z,10.96
2023-04-02T13:54:28.856Z,11.15
2023-04-02T13:56:56.367Z,11.12
2023-04-02T13:59:24.204Z,10.98
2023-04-02T14:01:59.934Z,10.80
2023-04-02T14:04:35.465Z,10.88
2023-04-02T14:07:28.105Z,10.84
2023-04-02T14:10:11.761Z,10.82
2023-04-02T14:12:59.629Z,10.70
2023-04-02T14:15:45.256Z,10.54
2023-04-02T14:18:39.616Z,10.56
2023-04-02T14:21:23.169Z,10.17
2023-04-02T14:24:10.475Z,10.01
2023-04-02T14:27:05.699Z,9.58
2023-04-02T14:29:47.494Z,9.89
2023-04-02T14:32:25.670Z,10.00
2023-04-02T14:35:07.782Z,10.17
2023-04-02T14:37:45.960Z,10.13
2023-04-02T14:40:25.173Z,9.91
2023-04-02T14:43:00.517Z,9.82
2023-04-02T14:45:48.068Z,10.00
2023-04-02T14:48:34.872Z,9.90
2023-04-02T14:51:13.469Z,9.83
2023-04-02T14:53:56.305Z,10.18
2023-04-02T14:56:25.467Z,9.94
2023-04-02T14:59:07.273Z,10.04
2023-04-02T15:01:43.582Z,9.70
2023-04-02T15:04:18.446Z,9.36
2023-04-02T15:06:53.490Z,9.56
2023-04-02T15:09:31.294Z,9.79
2023-04-02T15:12:07.159Z,9.90
2023-04-02T15:14:41.063Z,9.72
2023-04-02T15:17:11.478Z,9.76
2023-04-02T15:19:38.935Z,9.76
2023-04-02T15:22:29.006Z,9.75
2023-04-02T15:25:12.250Z,9.81
2023-04-02T15:28:01.965Z,9.98
2023-04-02T15:30:35.868Z,9.71
2023-04-02T15:33:41.441Z,9.37
2023-04-02T15:36:43.262Z,9.65
2023-04-02T15:39:41.228Z,9.48
2023-04-02T15:42:19.973Z,9.29
2023-04-02T15:45:15.995Z,9.17
2023-04-02T15:48:13.997Z,9.33
2023-04-02T15:50:58.965Z,9.49
2023-04-02T15:53:39.391Z,9.75
2023-04-02T15:56:24.510Z,9.80
2023-04-02T15:59:26.298Z,9.72
2023-04-02T16:02:02.133Z,9.68
2023-04-02T16:04:46.250Z,9.43
2023-04-02T16:07:30.362Z,9.25
2023-04-02T16:10:11.774Z,9.05
2023-04-02T16:12:41.336Z,9.02
2023-04-02T16:15:17.518Z,9.01
2023-04-02T16:17:51.220Z,8.95
2023-04-02T16:20:24.657Z,8.74
2023-04-02T16:23:02.191Z,8.93
2023-04-02T16:25:38.936Z,8.65
2023-04-02T16:28:23.287Z,8.58
2023-04-02T16:31:03.624Z,8.71
2023-04-02T16:34:00.436Z,8.73
2023-04-02T16:36:49.666Z,8.63
2023-04-02T16:39:38.978Z,8.67
2023-04-02T16:42:32.381Z,8.73
2023-04-02T16:45:37.227Z,8.45
2023-04-02T16:48:17.592Z,8.44
2023-04-02T16:51:20.839Z,8.41
2023-04-02T16:54:04.635Z,8.41
2023-04-02T16:57:09.968Z,8.20
2023-04-02T16:59:57.963Z,8.41
2023-04-02T17:03:06.010Z,8.45
2023-04-02T17:06:00.379Z,8.32
2023-04-02T17:08:53.811Z,8.31
2023-04-02T17:11:35.162Z,8.21
2023-04-02T17:14:06.514Z,8.26
2023-04-02T17:16:43.305Z,8.40
2023-04-02T17:19:16.581Z,8.38
2023-04-02T17:21:48.890Z,8.41
2023-04-02T17:24:26.327Z,8.31
2023-04-02T17:27:00.464Z,8.31
2023-04-02T17:29:36.661Z,8.04
2023-04-02T17:32:17.848Z,8.03
2023-04-02T17:34:46.316Z,7.86
2023-04-02T17:37:34.819Z,7.57
2023-04-02T17:40:23.480Z,7.48
2023-04-02T17:43:03.239Z,7.35
2023-04-02T17:45:46.329Z,7.21
2023-04-02T17:48:27.908Z,7.11
2023-04-02T17:51:20.597Z,7.09
2023-04-02T17:54:05.937Z,7.05
2023-04-02T17:56:57.067Z,6.99
2023-04-02T17:59:55.488Z,6.89
2023-04-02T18:02:49.285Z,6.81
2023-04-02T18:05:28.112Z,6.80
2023-04-02T18:08:12.423Z,6.79
2023-04-02T18:10:59.796Z,6.77
2023-04-02T18:13:35.088Z,6.77
2023-04-02T18:16:18.220Z,6.83
2023-04-02T18:19:10.531Z,6.73
2023-04-02T18:21:48.625Z,6.75
2023-04-02T18:24:46.022Z,6.70
2023-04-02T18:27:37.396Z,6.66
2023-04-02T18:30:18.357Z,6.49
2023-04-02T18:33:27.354Z,6.57
2023-04-02T18:36:06.550Z,6.45
2023-04-02T18:38:44.433Z,6.53
2023-04-02T18:41:35.547Z,6.56
2023-04-02T18:44:30.078Z,6.64
2023-04-02T18:47:08.065Z,6.64
2023-04-02T18:49:39.204Z,6.73
2023-04-02T18:52:14.089Z,6.54
2023-04-02T18:54:48.748Z,6.26
2023-04-02T18:57:24.044Z,6.14
2023-04-02T19:00:00.212Z,6.14
2023-04-02T19:02:47.013Z,6.33
2023-04-02T19:05:23.868Z,5.96
2023-04-02T19:08:01.615Z,5.77
2023-04-02T19:10:33.505Z,5.96
2023-04-02T19:13:02.282Z,5.74
2023-04-02T19:15:40.529Z,5.64
2023-04-02T19:18:22.001Z,5.74
2023-04-02T19:20:57.521Z,5.75
2023-04-02T19:23:52.478Z,5.75
2023-04-02T19:26:27.316Z,5.64
2023-04-02T19:29:17.637Z,5.77
2023-04-02T19:31:56.893Z,5.68
2023-04-02T19:34:38.265Z,5.76
2023-04-02T19:37:18.012Z,5.69
2023-04-02T19:40:25.846Z,5.59
2023-04-02T19:42:54.448Z,5.73
2023-04-02T19:45:39.405Z,5.69
2023-04-02T19:48:15.755Z,5.57
2023-04-02T19:50:43.341Z,5.63
2023-04-02T19:53:10.591Z,5.58
2023-04-02T19:55:39.370Z,5.65
2023-04-02T19:58:17.693Z,5.77
2023-04-02T20:00:48.344Z,5.87
2023-04-02T20:03:15.256Z,5.67
2023-04-02T20:05:43.136Z,5.80
2023-04-02T20:08:10.815Z,5.67
2023-04-02T20:10:39.104Z,5.55
2023-04-02T20:13:06.194Z,5.76
2023-04-02T20:15:39.265Z,5.55
2023-04-02T20:18:10.907Z,5.55
2023-04-02T20:21:04.288Z,5.46
2023-04-02T20:23:31.660Z,5.52
2023-04-02T20:25:58.635Z,5.51
2023-04-02T20:28:27.679Z,5.60
2023-04-02T20:31:06.181Z,5.51
2023-04-02T20:33:36.633Z,5.51
2023-04-02T20:36:07.221Z,5.83
2023-04-02T20:38:35.118Z,5.68
2023-04-02T20:41:04.191Z,5.78
2023-04-02T20:43:31.247Z,5.71
2023-04-02T20:46:01.360Z,5.71
2023-04-02T20:48:29.537Z,5.73
2023-04-02T20:50:58.741Z,5.63
2023-04-02T20:53:26.264Z,5.61
2023-04-02T20:55:53.162Z,5.64
2023-04-02T20:58:20.647Z,5.65
2023-04-02T21:00:47.621Z,5.56
2023-04-02T21:03:15.899Z,5.61
2023-04-02T21:05:43.755Z,5.74
2023-04-02T21:08:12.517Z,6.66
2023-04-02T21:10:40.681Z,5.99
2023-04-02T21:13:07.761Z,6.20
2023-04-02T21:15:34.856Z,6.26
2023-04-02T21:18:02.103Z,6.21
2023-04-02T21:20:30.714Z,5.93
2023-04-02T21:22:57.775Z,5.66
2023-04-02T21:25:26.362Z,5.98
2023-04-02T21:27:54.497Z,6.08
2023-04-02T21:30:21.928Z,6.24
2023-04-02T21:32:49.511Z,6.74
2023-04-02T21:35:16.598Z,6.51
2023-04-02T21:37:44.264Z,6.70
2023-04-02T21:40:12.302Z,6.60
2023-04-02T21:42:41.930Z,6.94
2023-04-02T21:45:09.928Z,6.86
2023-04-02T21:47:37.703Z,6.83
2023-04-02T21:50:06.159Z,7.12
2023-04-02T21:52:33.166Z,7.15
2023-04-02T21:55:00.038Z,7.01
2023-04-02T21:57:27.036Z,5.95
2023-04-02T21:59:55.959Z,5.97
2023-04-02T22:02:22.979Z,6.70
2023-04-02T22:04:50.102Z,6.23
2023-04-02T22:07:17.142Z,6.69
2023-04-02T22:09:46.023Z,7.24
2023-04-02T22:12:12.966Z,7.13
2023-04-02T22:14:43.370Z,7.21
2023-04-02T22:17:11.646Z,6.35
2023-04-02T22:19:38.479Z,6.72
2023-04-02T22:22:05.358Z,7.00
2023-04-02T22:24:32.504Z,6.94
2023-04-02T22:26:59.478Z,7.13
2023-04-02T22:29:26.549Z,6.74
2023-04-02T22:31:56.050Z,6.12
2023-04-02T22:34:24.509Z,6.31
2023-04-02T22:36:51.499Z,6.33
2023-04-02T22:39:18.688Z,6.38
2023-04-02T22:41:45.661Z,6.35
2023-04-02T22:44:15.814Z,6.45
2023-04-02T22:46:42.867Z,6.35
2023-04-02T22:49:09.965Z,6.22
2023-04-02T22:51:38.323Z,6.05
2023-04-02T22:54:05.678Z,6.25
2023-04-02T22:56:32.559Z,6.02
2023-04-02T22:58:59.516Z,6.54
2023-04-02T23:01:32.858Z,6.47
2023-04-02T23:04:00.360Z,6.14
2023-04-02T23:06:28.467Z,6.06
2023-04-02T23:08:57.903Z,6.27
2023-04-02T23:11:27.683Z,6.19
2023-04-02T23:13:58.259Z,5.85
2023-04-02T23:16:27.900Z,5.43
2023-04-02T23:18:56.049Z,5.61
2023-04-02T23:21:24.511Z,5.74
2023-04-02T23:23:51.507Z,5.87
2023-04-02T23:26:22.430Z,6.00
2023-04-02T23:28:50.413Z,6.09
2023-04-02T23:31:20.142Z,6.10
2023-04-02T23:33:47.126Z,6.14
2023-04-02T23:36:20.489Z,6.03
2023-04-02T23:38:47.493Z,5.66
2023-04-02T23:41:15.821Z,5.41
2023-04-02T23:43:44.391Z,5.43
2023-04-02T23:46:11.511Z,5.39
2023-04-02T23:48:38.901Z,5.61
2023-04-02T23:51:06.463Z,5.33
2023-04-02T23:53:34.773Z,5.50
2023-04-02T23:56:01.769Z,5.56
2023-04-02T23:58:28.926Z,5.68
